Terminal Aerodrome Forecast
Issued by NWS Charleston, WV

Home | Current Version | Previous Version | Text Only | Print | Product List | Glossary On
Versions: 1 2 3 4 5 6 7 8 9 10 11 12 13 14 15 16 17 18 19 20 21 22 23
000
FTUS41 KRLX 281121
TAFCRW
TAF
KCRW 281121Z 2812/2912 00000KT P6SM SCT015
      TEMPO 2812/2815 BKN015
     FM281500 00000KT P6SM SCT025
     FM281700 00000KT P6SM BKN050
     FM281900 00000KT P6SM VCTS BKN050CB
     FM290100 00000KT P6SM BKN050
     FM290700 00000KT 6SM BR BKN050
     FM290900 00000KT 6SM BR BKN015=

USA.gov is the U.S. government's official web portal to all federal, state and local government web resources and services.